Portada
METAR-TAF:

METAR-TAF

Aeroports :

Selebi-Phikwe, Botswana

latitud: 22-03-19S, longitud: 027-49-13E, altitud: 892 m

Observació

L'informe es va fer fa 5 hores i 12 minuts, a les 18:00 UTC
Vent 10 kt del Est
Temperatura 22°C
Humitat 69%
Pressió 1020 hPa
Visibilitat 10 km o més
sense núvols per sota de 1500 mi sense presència de cumulonimbus.

METAR: FBSP 031800Z 09010KT CAVOK 22/16 Q1020

Hora: 01:12 (23:12 UTC)

Pronòstic

L'informe es va fer fa 11 hores i 12 minuts, a les 12:00 UTC
Pronòstic vàlid del 03 a les 15 UTC al 03 a les 24 UTC
Vent 7 kt del Nord/Nord-Est
Visibilitat 10 km o més
sense núvols per sota de 1500 mi sense presència de cumulonimbus.

TAF: FBSP 031200Z 0315/0324 03007KT CAVOK

Observacions i pronòstics meteorològics de més de 4000 aeroports (METAR i TAF).

Les estacions disponibles són els punts grocs i vermells al mapa.

Posi el ratolí al punt desitjat per veure el nom de l'estació.

Feu clic per veure les observacions i els pronòstics meteorològics.

Per canviar el mapa: feu clic els botons verds amb una creu de color negre per apropar; al botó verd amb un guió per allunyar la imatge; o en les fletxes verdes per a mapes adjacents.


METAR-TAF: